Terminal Aerodrome Forecast
Issued by NWS Shreveport, LA

Home | Current Version | Previous Version | Text Only | Print | Product List | Glossary On
Versions: 1 2 3 4 5 6 7 8 9 10 11 12 13 14 15 16 17 18 19
000
FTUS44 KSHV 171140
TAFMLU
TAF
KMLU 171140Z 1712/1812 35005KT 6SM -SHRA BR SCT007 OVC015
      TEMPO 1712/1715 3SM TSRA BR BKN007CB
     FM171500 36005KT P6SM VCSH SCT008 OVC015
     FM171700 35004KT P6SM VCSH OVC020
     FM180000 01003KT P6SM OVC020
     FM180300 03003KT P6SM OVC015
     FM180600 03004KT P6SM VCSH OVC015=

USA.gov is the U.S. government's official web portal to all federal, state and local government web resources and services.